KVEL/VEL METAR and TAF weather

Enter ICAO airport designator
Station Type Date Time Source
KVEL METAR 2019/04/25 09:53 UTC NOAA

KVEL 250953Z AUTO 26004KT 10SM CLR 08/02 A3010 RMK AO2 SLP148 T00780017


Station Type Date Time Source
KVEL Decoded METAR 2019/04/25 09:53 UTC NOAA

VERNAL AIRPORT, UT, United States (KVEL) 40-26N 109-30W 1604M
Apr 25, 2019 - 05:53 AM EDT / 2019.04.25 0953 UTC
Wind: from the W (260 degrees) at 5 MPH (4 KT):0
Visibility: 10 mile(s):0
Sky conditions: clear
Temperature: 46.0 F (7.8 C)
Dew Point: 35.1 F (1.7 C)
Relative Humidity: 65%
Pressure (altimeter): 30.1 in. Hg (1019 hPa)
ob: KVEL 250953Z AUTO 26004KT 10SM CLR 08/02 A3010 RMK AO2 SLP148 T00780017
cycle: 10

Station Type Date Time Source
KVEL TAF 2019/04/25 06:42 UTC NOAA

TAF KVEL 250538Z 2506/2606 31006KT P6SM FEW090 FEW250
FM251400 VRB04KT P6SM FEW080 FEW250
FM251900 23007KT P6SM FEW070 SCT250
FM260100 30006KT P6SM FEW090 SCT180

Example: see airport list